Time;durP1;ratioP1;P1;durP2;ratioP2;P2;SDS_P1;SDS_P2;PMS_P1;PMS_P2;Temp;Humidity;BMP_temperature;BMP_pressure;BME280_temperature;BME280_humidity;BME280_pressure;Samples;Min_cycle;Max_cycle;Signal;HPM_P1;HPM_P2
2022/10/12 00:01:31;;;;;;;12.77;3.58;;;8.50;99.90;;;;;;5037788;28;20025;-74
2022/10/12 00:03:57;;;;;;;8.95;3.60;;;8.50;99.90;;;;;;5042158;28;20358;-74
2022/10/12 00:06:23;;;;;;;16.48;3.40;;;8.60;99.90;;;;;;5040243;28;20580;-76
2022/10/12 00:08:51;;;;;;;8.60;3.08;;;8.50;99.90;;;;;;5040172;28;20342;-75
2022/10/12 00:11:23;;;;;;;6.55;2.47;;;8.50;99.90;;;;;;5041674;28;20045;-75
2022/10/12 00:13:49;;;;;;;11.32;2.90;;;8.60;99.90;;;;;;5039059;28;20025;-75
2022/10/12 00:16:17;;;;;;;8.07;3.15;;;8.60;99.90;;;;;;5042596;28;20041;-75
2022/10/12 00:18:45;;;;;;;11.50;2.63;;;8.50;99.90;;;;;;5038506;28;20120;-74
2022/10/12 00:21:17;;;;;;;10.38;2.95;;;8.50;99.90;;;;;;5041067;28;20450;-75
2022/10/12 00:23:43;;;;;;;5.75;2.33;;;8.50;99.90;;;;;;5043087;28;20028;-75
2022/10/12 00:26:20;;;;;;;5.93;2.72;;;8.50;99.90;;;;;;5042421;28;20040;-75
2022/10/12 00:28:53;;;;;;;14.05;3.63;;;8.50;99.90;;;;;;5038760;28;20343;-75
2022/10/12 00:31:19;;;;;;;10.82;3.60;;;8.40;99.90;;;;;;5042544;28;20018;-75
2022/10/12 00:33:46;;;;;;;10.35;4.13;;;8.40;99.90;;;;;;5040295;28;20032;-75
2022/10/12 00:36:26;;;;;;;8.20;3.17;;;8.40;99.90;;;;;;5040047;28;20503;-75
2022/10/12 00:38:53;;;;;;;9.00;2.85;;;8.40;99.90;;;;;;5039565;28;20026;-73
2022/10/12 00:41:22;;;;;;;6.20;2.90;;;8.50;99.90;;;;;;5043110;28;20112;-75
2022/10/12 00:43:50;;;;;;;18.90;3.90;;;8.40;99.90;;;;;;5038058;28;20091;-74
2022/10/12 00:46:41;;;;;;;6.07;2.50;;;8.40;99.90;;;;;;5039456;28;20116;-75
2022/10/12 00:49:14;;;;;;;11.82;3.17;;;8.40;99.90;;;;;;5036883;28;20017;-75
2022/10/12 00:51:42;;;;;;;8.45;2.95;;;8.40;99.90;;;;;;5039520;28;20102;-75
2022/10/12 00:54:13;;;;;;;9.25;3.17;;;8.40;99.90;;;;;;5043179;28;20029;-74
2022/10/12 00:57:14;;;;;;;7.72;3.15;;;8.40;99.90;;;;;;5043451;28;20021;-75
2022/10/12 00:59:46;;;;;;;8.82;3.60;;;8.30;99.90;;;;;;5047533;28;20029;-73
2022/10/12 01:02:12;;;;;;;11.10;3.10;;;8.30;99.90;;;;;;5035804;28;20021;-75
2022/10/12 01:04:39;;;;;;;7.10;3.22;;;8.20;99.90;;;;;;5043217;28;20137;-75
2022/10/12 01:07:04;;;;;;;8.35;2.60;;;8.20;99.90;;;;;;5043266;28;20032;-76
2022/10/12 01:09:30;;;;;;;6.03;2.90;;;8.20;99.90;;;;;;5046588;28;20026;-75
2022/10/12 01:11:57;;;;;;;10.02;3.25;;;8.20;99.90;;;;;;5039998;28;20304;-75
2022/10/12 01:14:23;;;;;;;10.73;3.60;;;8.20;99.90;;;;;;5040326;28;20040;-75
2022/10/12 01:17:12;;;;;;;8.32;3.33;;;8.20;99.90;;;;;;5042091;28;20078;-76
2022/10/12 01:20:03;;;;;;;7.43;3.17;;;8.20;99.90;;;;;;5041371;28;20025;-75
2022/10/12 01:22:36;;;;;;;16.52;3.60;;;8.20;99.90;;;;;;5055052;28;20112;-75
2022/10/12 01:25:19;;;;;;;10.85;3.63;;;8.20;99.90;;;;;;5039194;28;20021;-75
2022/10/12 01:27:51;;;;;;;11.65;4.25;;;8.20;99.90;;;;;;5038703;28;20037;-75
2022/10/12 01:30:35;;;;;;;11.98;3.05;;;8.30;99.90;;;;;;5040187;28;20064;-75
2022/10/12 01:33:16;;;;;;;16.70;3.22;;;8.20;99.90;;;;;;5037207;28;20056;-74
2022/10/12 01:35:54;;;;;;;11.63;3.40;;;8.10;99.90;;;;;;5042631;28;20030;-76
2022/10/12 01:38:34;;;;;;;8.93;3.50;;;8.10;99.90;;;;;;5043377;28;20485;-75
2022/10/12 01:41:08;;;;;;;6.53;2.85;;;8.00;99.90;;;;;;5040523;28;20116;-76
2022/10/12 01:43:37;;;;;;;8.05;3.45;;;8.00;99.90;;;;;;5035781;28;20025;-75
2022/10/12 01:46:25;;;;;;;7.30;2.70;;;8.00;99.90;;;;;;5038667;28;20173;-75
2022/10/12 01:48:54;;;;;;;8.23;3.20;;;8.00;99.90;;;;;;5033196;28;20033;-74
2022/10/12 01:51:54;;;;;;;13.02;3.40;;;8.10;99.90;;;;;;5040855;28;20029;-75
2022/10/12 01:54:36;;;;;;;7.10;3.35;;;8.10;99.90;;;;;;5037365;28;20045;-74
2022/10/12 01:57:19;;;;;;;14.75;3.47;;;8.00;99.90;;;;;;5038993;28;20021;-75
2022/10/12 01:59:53;;;;;;;7.78;2.53;;;8.00;99.90;;;;;;5041790;28;20087;-75
2022/10/12 02:02:54;;;;;;;9.77;3.17;;;8.10;99.90;;;;;;5038425;28;20037;-75
2022/10/12 02:05:38;;;;;;;8.73;2.95;;;8.00;99.90;;;;;;5036437;28;20009;-75
2022/10/12 02:08:24;;;;;;;5.75;2.92;;;7.90;99.90;;;;;;5039765;28;20554;-75
2022/10/12 02:10:52;;;;;;;7.43;2.58;;;7.90;99.90;;;;;;5040073;28;20354;-75
2022/10/12 02:13:20;;;;;;;9.23;3.20;;;7.80;99.90;;;;;;5044295;28;20446;-75
2022/10/12 02:15:47;;;;;;;6.10;2.80;;;7.80;99.90;;;;;;5036697;28;20037;-75
2022/10/12 02:18:17;;;;;;;8.50;2.78;;;7.70;99.90;;;;;;5040183;28;20386;-75
2022/10/12 02:20:49;;;;;;;8.45;3.33;;;7.70;99.90;;;;;;5038531;28;20022;-75
2022/10/12 02:23:17;;;;;;;7.93;3.63;;;7.70;99.90;;;;;;5038730;28;20041;-74
2022/10/12 02:25:44;;;;;;;8.27;3.05;;;7.50;99.90;;;;;;5043583;28;20025;-75
2022/10/12 02:28:15;;;;;;;7.68;3.17;;;7.50;99.90;;;;;;5037921;28;20026;-74
2022/10/12 02:31:04;;;;;;;6.95;3.28;;;7.50;99.90;;;;;;5033900;28;20099;-75
2022/10/12 02:33:42;;;;;;;7.07;3.15;;;7.60;99.90;;;;;;5037226;28;20051;-76
2022/10/12 02:36:15;;;;;;;8.77;3.65;;;7.70;99.90;;;;;;5039339;28;20365;-76
2022/10/12 02:38:47;;;;;;;;;;;7.70;99.90;;;;;;5037481;28;20126;-75
2022/10/12 02:41:22;;;;;;;8.13;3.25;;;7.70;99.90;;;;;;5041208;28;19971;-75
2022/10/12 02:43:55;;;;;;;8.15;3.58;;;7.60;99.90;;;;;;5037785;28;20028;-74
2022/10/12 02:46:24;;;;;;;4.90;3.10;;;7.60;99.90;;;;;;5036911;28;20025;-75
2022/10/12 02:48:50;;;;;;;10.32;4.00;;;7.50;99.90;;;;;;5036611;28;20442;-75
2022/10/12 02:51:18;;;;;;;11.85;3.63;;;7.50;99.90;;;;;;5037727;28;20048;-75
2022/10/12 02:53:44;;;;;;;8.52;4.10;;;7.40;99.90;;;;;;5038578;28;20025;-75
2022/10/12 02:56:12;;;;;;;18.17;4.60;;;7.40;99.90;;;;;;5037980;28;20057;-75
2022/10/12 02:58:39;;;;;;;11.13;5.15;;;7.40;99.90;;;;;;5037792;28;20139;-72
2022/10/12 03:01:05;;;;;;;9.68;4.00;;;7.40;99.90;;;;;;5041836;28;20352;-72
2022/10/12 03:03:33;;;;;;;13.05;5.22;;;7.40;99.90;;;;;;5039863;28;20032;-75
2022/10/12 03:05:58;;;;;;;11.75;4.75;;;7.50;99.90;;;;;;5038215;28;20021;-76
2022/10/12 03:08:24;;;;;;;11.90;5.00;;;7.50;99.90;;;;;;5038288;28;20423;-75
2022/10/12 03:10:49;;;;;;;8.82;4.22;;;7.60;99.90;;;;;;5038040;28;20037;-75
2022/10/12 03:13:18;;;;;;;8.02;5.10;;;7.60;99.90;;;;;;5037802;28;20647;-75
2022/10/12 03:15:43;;;;;;;16.08;4.43;;;7.60;99.90;;;;;;5040490;28;20036;-75
2022/10/12 03:18:11;;;;;;;15.27;4.22;;;7.60;99.90;;;;;;5033624;28;20030;-77
2022/10/12 03:20:37;;;;;;;10.38;4.10;;;7.70;99.90;;;;;;5039391;28;20033;-74
2022/10/12 03:23:02;;;;;;;12.15;4.72;;;7.60;99.90;;;;;;5037856;28;20037;-75
2022/10/12 03:25:28;;;;;;;12.13;4.40;;;7.70;99.90;;;;;;5040865;28;20106;-74
2022/10/12 03:27:56;;;;;;;6.80;3.70;;;7.70;99.90;;;;;;5039638;28;20021;-74
2022/10/12 03:30:21;;;;;;;17.40;4.95;;;7.60;99.90;;;;;;5037473;28;20079;-74
2022/10/12 03:32:47;;;;;;;13.68;4.93;;;7.60;99.90;;;;;;5036592;28;20032;-74
2022/10/12 03:35:13;;;;;;;10.98;5.00;;;7.60;99.90;;;;;;5039315;28;20363;-78
2022/10/12 03:37:38;;;;;;;12.80;5.18;;;7.60;99.90;;;;;;5038740;28;20351;-78
2022/10/12 03:40:05;;;;;;;11.48;4.95;;;7.60;99.90;;;;;;5036243;28;20518;-75
2022/10/12 03:42:30;;;;;;;17.15;5.53;;;7.60;99.90;;;;;;5038963;28;20087;-75
2022/10/12 03:44:56;;;;;;;8.50;4.78;;;7.60;99.90;;;;;;5037168;28;20018;-74
2022/10/12 03:47:21;;;;;;;11.90;4.80;;;7.60;99.90;;;;;;5040874;28;20032;-74
2022/10/12 03:49:49;;;;;;;14.77;4.65;;;7.60;99.90;;;;;;5040646;28;20075;-75
2022/10/12 03:52:15;;;;;;;11.35;4.78;;;7.50;99.90;;;;;;5054807;28;20104;-77
2022/10/12 03:54:40;;;;;;;9.90;4.75;;;7.50;99.90;;;;;;5041129;28;20072;-78
2022/10/12 03:57:06;;;;;;;10.43;5.78;;;7.50;99.90;;;;;;5042311;28;20488;-75
2022/10/12 03:59:34;;;;;;;16.00;5.40;;;7.50;99.90;;;;;;5044921;28;20091;-76
2022/10/12 04:01:59;;;;;;;12.65;5.50;;;7.50;99.90;;;;;;5041925;28;20044;-75
2022/10/12 04:04:25;;;;;;;11.48;4.88;;;7.50;99.90;;;;;;5041359;28;20365;-76
2022/10/12 04:06:51;;;;;;;13.95;4.72;;;7.40;99.90;;;;;;5044164;28;20021;-75
2022/10/12 04:09:16;;;;;;;8.23;5.13;;;7.40;99.90;;;;;;5043145;28;20420;-76
2022/10/12 04:11:42;;;;;;;13.45;5.65;;;7.40;99.90;;;;;;5041014;28;20039;-75
2022/10/12 04:14:07;;;;;;;8.13;5.13;;;7.40;99.90;;;;;;5041547;28;20034;-75
2022/10/12 04:16:33;;;;;;;8.98;4.95;;;7.40;99.90;;;;;;5043425;28;20031;-75
2022/10/12 04:18:58;;;;;;;12.70;5.43;;;7.50;99.90;;;;;;5041292;28;20106;-75
2022/10/12 04:21:24;;;;;;;13.70;4.93;;;7.50;99.90;;;;;;5044481;28;20179;-76
2022/10/12 04:23:50;;;;;;;14.68;5.55;;;7.50;99.90;;;;;;5056242;28;20028;-75
2022/10/12 04:26:18;;;;;;;15.20;5.68;;;7.50;99.90;;;;;;5043776;28;20146;-75
2022/10/12 04:28:46;;;;;;;11.65;5.38;;;7.50;99.90;;;;;;5040152;28;20029;-76
2022/10/12 04:31:14;;;;;;;7.70;4.25;;;7.50;99.90;;;;;;5041615;28;20104;-75
2022/10/12 04:33:41;;;;;;;12.60;4.80;;;7.50;99.90;;;;;;5036139;28;20230;-76
2022/10/12 04:36:07;;;;;;;10.00;4.70;;;7.40;99.90;;;;;;5055551;28;20022;-75
2022/10/12 04:38:37;;;;;;;11.20;5.20;;;7.40;99.90;;;;;;5041754;28;20466;-75
2022/10/12 04:41:05;;;;;;;12.25;5.03;;;7.40;99.90;;;;;;5040561;28;20029;-76
2022/10/12 04:43:31;;;;;;;10.35;4.43;;;7.40;99.90;;;;;;5042771;28;20057;-75
2022/10/12 04:45:58;;;;;;;9.63;4.90;;;7.40;99.90;;;;;;5041132;28;20126;-75
2022/10/12 04:48:25;;;;;;;17.13;5.35;;;7.30;99.90;;;;;;5038474;28;20060;-76
2022/10/12 04:50:51;;;;;;;17.13;5.85;;;7.30;99.90;;;;;;5044363;28;20017;-75
2022/10/12 04:53:19;;;;;;;16.08;5.65;;;7.20;99.90;;;;;;5048817;28;20485;-78
2022/10/12 04:55:44;;;;;;;9.63;5.28;;;7.10;99.90;;;;;;5042432;28;20459;-75
2022/10/12 04:58:10;;;;;;;17.45;5.80;;;7.10;99.90;;;;;;5040118;28;20053;-76
2022/10/12 05:00:36;;;;;;;13.52;5.35;;;7.10;99.90;;;;;;5038987;28;20040;-75
2022/10/12 05:03:02;;;;;;;21.55;5.60;;;7.00;99.90;;;;;;5039827;28;20059;-75
2022/10/12 05:05:30;;;;;;;13.25;5.70;;;7.00;99.90;;;;;;5042784;28;20076;-76
2022/10/12 05:07:55;;;;;;;18.33;5.78;;;7.00;99.90;;;;;;5035664;28;20030;-76
2022/10/12 05:10:21;;;;;;;12.75;5.38;;;7.00;99.90;;;;;;5039343;28;20037;-76
2022/10/12 05:12:47;;;;;;;11.95;5.90;;;7.10;99.90;;;;;;5047727;28;20029;-76
2022/10/12 05:15:12;;;;;;;16.50;5.28;;;7.10;99.90;;;;;;5040860;28;20493;-76
2022/10/12 05:17:38;;;;;;;11.82;5.50;;;7.00;99.90;;;;;;5037031;28;20083;-76
2022/10/12 05:20:04;;;;;;;17.25;6.55;;;7.00;99.90;;;;;;5052178;28;20030;-76
2022/10/12 05:22:30;;;;;;;19.42;6.10;;;7.00;99.90;;;;;;5045925;28;20029;-76
2022/10/12 05:24:56;;;;;;;12.20;5.25;;;7.00;99.90;;;;;;5040025;28;20063;-75
2022/10/12 05:27:22;;;;;;;14.65;6.07;;;7.00;99.90;;;;;;5041042;28;20060;-75
2022/10/12 05:29:47;;;;;;;14.30;5.32;;;7.00;99.90;;;;;;5040714;28;20021;-77
2022/10/12 05:32:13;;;;;;;10.82;5.32;;;7.00;99.90;;;;;;5040764;28;20034;-75
2022/10/12 05:34:42;;;;;;;15.80;5.50;;;7.00;99.90;;;;;;5042959;28;20036;-76
2022/10/12 05:37:08;;;;;;;17.38;5.50;;;7.00;99.90;;;;;;5038091;28;20091;-81
2022/10/12 05:39:38;;;;;;;11.38;5.72;;;7.00;99.90;;;;;;5031946;28;20413;-82
2022/10/12 05:42:04;;;;;;;17.23;6.07;;;7.00;99.90;;;;;;5039978;28;20033;-84
2022/10/12 05:44:32;;;;;;;11.40;5.30;;;7.00;99.90;;;;;;5041767;28;20588;-80
2022/10/12 05:46:58;;;;;;;10.40;5.43;;;7.00;99.90;;;;;;5042196;28;20067;-81
2022/10/12 05:49:24;;;;;;;8.00;4.82;;;7.00;99.90;;;;;;5043705;28;20041;-81
2022/10/12 05:51:52;;;;;;;10.77;5.05;;;7.00;99.90;;;;;;5043346;28;20025;-78
2022/10/12 05:54:17;;;;;;;13.88;4.90;;;7.00;99.90;;;;;;5039253;28;20021;-83
2022/10/12 05:56:43;;;;;;;11.55;5.20;;;6.90;99.90;;;;;;5040219;28;20087;-82
2022/10/12 05:59:10;;;;;;;16.02;5.35;;;6.90;99.90;;;;;;5040546;28;20029;-81
2022/10/12 06:01:36;;;;;;;12.38;5.07;;;6.90;99.90;;;;;;5040812;28;20111;-81
2022/10/12 06:04:01;;;;;;;11.02;5.57;;;6.90;99.90;;;;;;5040773;28;20101;-82
2022/10/12 06:06:27;;;;;;;10.90;5.65;;;6.80;99.90;;;;;;5041193;28;20108;-81
2022/10/12 06:08:52;;;;;;;17.08;5.97;;;6.80;99.90;;;;;;5041543;28;20108;-80
2022/10/12 06:11:20;;;;;;;10.85;5.70;;;6.80;99.90;;;;;;5043465;28;20021;-84
2022/10/12 06:13:48;;;;;;;11.38;5.75;;;6.80;99.90;;;;;;5039062;28;20060;-83
2022/10/12 06:16:14;;;;;;;8.07;5.47;;;6.90;99.90;;;;;;5038735;28;20021;-80
2022/10/12 06:18:40;;;;;;;16.48;5.13;;;6.90;99.90;;;;;;5038247;28;20108;-78
2022/10/12 06:21:08;;;;;;;21.02;5.97;;;6.90;99.90;;;;;;5043517;28;20398;-81
2022/10/12 06:23:33;;;;;;;14.27;5.38;;;6.90;99.90;;;;;;5042998;28;20064;-81
2022/10/12 06:26:01;;;;;;;20.80;6.10;;;6.90;99.90;;;;;;5041424;28;20109;-81
2022/10/12 06:28:27;;;;;;;15.15;5.72;;;7.00;99.90;;;;;;5039846;28;20014;-83
2022/10/12 06:30:55;;;;;;;13.93;5.80;;;7.10;99.90;;;;;;5038866;28;20519;-82
2022/10/12 06:33:24;;;;;;;12.30;5.72;;;7.20;99.90;;;;;;5039118;28;20159;-79
2022/10/12 06:35:50;;;;;;;19.05;6.90;;;7.30;99.90;;;;;;5046334;28;20037;-84
2022/10/12 06:38:16;;;;;;;16.17;6.65;;;7.30;99.90;;;;;;5052691;28;20022;-77
2022/10/12 06:40:42;;;;;;;18.00;7.43;;;7.40;99.90;;;;;;5054252;28;20034;-80
2022/10/12 06:43:10;;;;;;;13.48;6.20;;;7.50;99.90;;;;;;5051181;28;20033;-82
2022/10/12 06:45:36;;;;;;;14.85;6.78;;;7.60;99.90;;;;;;5046409;28;20336;-81
2022/10/12 06:48:05;;;;;;;15.82;6.22;;;7.80;99.90;;;;;;5051131;28;20030;-82
2022/10/12 06:50:30;;;;;;;10.75;5.30;;;7.80;99.90;;;;;;5060175;28;20074;-82
2022/10/12 06:52:56;;;;;;;28.00;6.72;;;7.90;99.90;;;;;;5048710;28;20093;-83
2022/10/12 06:55:21;;;;;;;21.13;6.82;;;8.00;99.90;;;;;;5047449;28;20024;-82
2022/10/12 06:57:47;;;;;;;20.55;6.53;;;8.20;99.90;;;;;;5046725;28;20030;-83
2022/10/12 07:00:13;;;;;;;19.58;6.50;;;8.40;99.90;;;;;;5035625;28;20064;-82
2022/10/12 07:02:39;;;;;;;10.52;5.22;;;8.40;99.90;;;;;;5043618;28;20025;-84
2022/10/12 07:05:06;;;;;;;15.45;6.32;;;8.60;99.90;;;;;;5040289;28;20433;-78
2022/10/12 07:07:33;;;;;;;20.13;6.72;;;8.80;99.90;;;;;;5037705;28;20029;-82
2022/10/12 07:09:59;;;;;;;18.27;6.78;;;8.90;99.90;;;;;;5038987;28;20057;-81
2022/10/12 07:12:27;;;;;;;17.48;7.50;;;9.10;99.90;;;;;;5038075;28;20094;-80
2022/10/12 07:14:57;;;;;;;17.50;7.65;;;9.20;99.90;;;;;;5038395;28;20048;-82
2022/10/12 07:17:25;;;;;;;19.77;8.13;;;9.30;99.90;;;;;;5041762;28;20057;-82
2022/10/12 07:19:53;;;;;;;16.33;6.78;;;9.40;99.90;;;;;;5040023;28;20021;-82
2022/10/12 07:22:18;;;;;;;19.27;6.90;;;9.50;99.90;;;;;;5045240;28;20041;-80
2022/10/12 07:24:44;;;;;;;14.20;6.35;;;9.50;99.90;;;;;;5039335;28;20079;-81
2022/10/12 07:27:10;;;;;;;30.25;7.40;;;9.50;99.90;;;;;;5042205;28;20034;-82
2022/10/12 07:29:37;;;;;;;20.73;7.35;;;9.60;99.90;;;;;;5045459;28;20025;-79
2022/10/12 07:32:04;;;;;;;11.77;6.38;;;9.60;99.90;;;;;;5051125;28;20029;-83
2022/10/12 07:34:29;;;;;;;13.63;6.60;;;9.60;99.90;;;;;;5041922;28;20028;-82
2022/10/12 07:36:58;;;;;;;12.80;6.18;;;9.60;99.90;;;;;;5043449;28;20029;-82
2022/10/12 07:39:24;;;;;;;15.05;6.15;;;9.70;99.90;;;;;;5040464;28;20029;-80
2022/10/12 07:41:53;;;;;;;17.02;6.32;;;9.70;99.90;;;;;;5043333;28;20175;-82
2022/10/12 07:44:19;;;;;;;11.75;6.50;;;9.80;99.90;;;;;;5045284;28;20097;-80
2022/10/12 07:46:45;;;;;;;13.70;6.90;;;9.90;99.90;;;;;;5041975;28;20052;-80
2022/10/12 07:49:14;;;;;;;12.98;6.38;;;9.90;99.90;;;;;;5044734;28;20028;-80
2022/10/12 07:51:41;;;;;;;21.45;6.70;;;10.10;99.90;;;;;;5045348;28;20099;-79
2022/10/12 07:54:07;;;;;;;17.25;6.55;;;10.10;99.90;;;;;;5039808;28;20041;-83
2022/10/12 07:56:33;;;;;;;12.90;6.10;;;10.20;99.90;;;;;;5043181;28;20029;-81
2022/10/12 07:59:01;;;;;;;15.85;7.07;;;10.30;99.90;;;;;;5038101;28;20376;-81
2022/10/12 08:01:29;;;;;;;12.43;6.20;;;10.50;99.90;;;;;;5044614;28;20462;-85
2022/10/12 08:03:56;;;;;;;14.68;6.15;;;10.60;99.90;;;;;;5041148;28;20017;-81
2022/10/12 08:06:26;;;;;;;16.73;6.65;;;10.70;99.90;;;;;;5041452;28;20033;-83
2022/10/12 08:08:54;;;;;;;14.15;6.10;;;10.90;99.90;;;;;;5058637;28;20482;-84
2022/10/12 08:11:22;;;;;;;17.85;6.32;;;11.10;99.90;;;;;;5044392;28;20612;-82
2022/10/12 08:13:48;;;;;;;16.30;5.90;;;11.10;99.90;;;;;;5039281;28;20439;-80
2022/10/12 08:16:19;;;;;;;20.88;6.60;;;11.20;99.90;;;;;;5043434;28;20078;-82
2022/10/12 08:18:47;;;;;;;14.68;5.55;;;11.20;99.90;;;;;;5044818;28;20032;-83
2022/10/12 08:21:14;;;;;;;16.38;6.22;;;11.40;99.90;;;;;;5041578;28;20033;-80
2022/10/12 08:23:40;;;;;;;19.98;7.15;;;11.60;99.90;;;;;;5046252;28;20100;-84
2022/10/12 08:26:09;;;;;;;14.80;6.32;;;11.80;99.90;;;;;;5040925;28;20021;-80
2022/10/12 08:28:37;;;;;;;16.80;6.70;;;11.90;99.90;;;;;;5041843;28;20085;-83
2022/10/12 08:31:08;;;;;;;14.00;6.13;;;12.00;99.90;;;;;;5041608;28;20355;-83
2022/10/12 08:33:34;;;;;;;10.70;5.50;;;12.10;99.90;;;;;;5034662;28;20099;-80
2022/10/12 08:36:04;;;;;;;14.63;5.50;;;12.10;99.90;;;;;;5039917;28;20037;-80
2022/10/12 08:38:30;;;;;;;14.50;5.82;;;12.20;99.90;;;;;;5038636;28;20037;-77
2022/10/12 08:41:03;;;;;;;14.30;5.30;;;12.40;99.90;;;;;;5044528;28;20362;-81
2022/10/12 08:43:47;;;;;;;;;;;12.80;99.90;;;;;;5039880;28;20458;-80
2022/10/12 08:46:13;;;;;;;17.10;5.60;;;13.00;99.90;;;;;;5043106;28;20243;-82
2022/10/12 08:48:59;;;;;;;17.60;6.32;;;13.00;99.90;;;;;;5043702;28;20056;-80
2022/10/12 08:51:31;;;;;;;18.48;5.35;;;13.20;99.90;;;;;;5044390;28;20090;-80
2022/10/12 08:54:11;;;;;;;11.80;5.15;;;14.00;99.90;;;;;;5043454;28;20108;-80
2022/10/12 08:56:39;;;;;;;21.52;5.15;;;15.00;99.90;;;;;;5040282;28;20025;-77
2022/10/12 08:59:07;;;;;;;12.98;4.70;;;15.90;98.00;;;;;;5037739;28;20023;-78
2022/10/12 09:01:37;;;;;;;14.60;4.57;;;17.40;95.10;;;;;;5041853;28;20072;-82
2022/10/12 09:04:15;;;;;;;10.82;5.13;;;18.40;92.20;;;;;;5053619;28;20035;-80
2022/10/12 09:06:50;;;;;;;10.35;4.25;;;18.00;91.10;;;;;;5050496;28;20095;-77
2022/10/12 09:09:18;;;;;;;18.70;4.97;;;17.70;90.30;;;;;;5051201;28;20021;-78
2022/10/12 09:12:12;;;;;;;11.70;4.93;;;17.10;90.40;;;;;;5048021;28;20125;-82
2022/10/12 09:14:43;;;;;;;12.25;4.60;;;17.70;92.00;;;;;;5051317;28;20032;-80
2022/10/12 09:17:25;;;;;;;16.92;5.80;;;18.20;89.50;;;;;;5054463;28;20021;-80
2022/10/12 09:20:01;;;;;;;17.92;5.65;;;18.00;87.80;;;;;;5047679;28;20497;-81
2022/10/12 09:22:29;;;;;;;18.58;6.10;;;18.50;86.90;;;;;;5049125;28;20053;-80
2022/10/12 09:24:56;;;;;;;18.80;5.00;;;19.30;83.00;;;;;;5053884;28;20041;-79
2022/10/12 09:27:22;;;;;;;14.73;6.00;;;19.30;79.30;;;;;;5049305;28;20147;-80
2022/10/12 09:29:58;;;;;;;20.75;5.90;;;18.70;79.00;;;;;;5045555;28;20037;-82
2022/10/12 09:32:32;;;;;;;17.98;5.78;;;18.80;79.50;;;;;;5051168;28;20025;-80
2022/10/12 09:35:01;;;;;;;21.10;6.32;;;19.00;79.00;;;;;;5060934;28;20408;-82
2022/10/12 09:37:31;;;;;;;17.88;6.05;;;18.80;77.90;;;;;;5044931;28;20085;-79
2022/10/12 09:40:01;;;;;;;22.63;5.90;;;18.70;79.00;;;;;;5042396;28;20048;-80
2022/10/12 09:42:26;;;;;;;15.30;5.78;;;18.10;80.60;;;;;;5044155;28;20065;-81
2022/10/12 09:45:15;;;;;;;29.40;7.15;;;17.80;82.70;;;;;;5039943;28;20061;-81
2022/10/12 09:47:41;;;;;;;20.83;6.70;;;17.80;83.30;;;;;;5037391;28;20505;-81
2022/10/12 09:50:07;;;;;;;26.17;6.85;;;18.00;81.90;;;;;;5040145;28;20124;-80
2022/10/12 09:52:36;;;;;;;18.17;7.25;;;17.90;82.40;;;;;;5041500;28;20033;-80
2022/10/12 09:55:10;;;;;;;22.75;6.60;;;17.90;83.20;;;;;;5039408;28;20029;-80
2022/10/12 09:57:39;;;;;;;17.95;6.45;;;18.00;82.80;;;;;;5043871;28;20060;-78
2022/10/12 10:00:32;;;;;;;17.73;6.25;;;18.30;81.70;;;;;;5039971;28;20025;-79
2022/10/12 10:02:59;;;;;;;19.75;6.50;;;18.70;81.50;;;;;;5036137;28;20029;-80
2022/10/12 10:05:31;;;;;;;15.15;5.35;;;18.80;79.30;;;;;;5022465;28;20024;-80
2022/10/12 10:08:19;;;;;;;15.98;6.32;;;19.00;79.10;;;;;;5039274;28;20162;-79
2022/10/12 10:10:56;;;;;;;18.15;5.88;;;19.00;77.80;;;;;;5036645;28;20352;-81
2022/10/12 10:13:29;;;;;;;12.07;5.50;;;19.20;76.90;;;;;;5038058;28;20029;-80
2022/10/12 10:16:10;;;;;;;17.90;5.00;;;19.40;77.90;;;;;;5036854;28;20042;-79
2022/10/12 10:18:47;;;;;;;15.82;5.22;;;19.40;76.00;;;;;;5037268;28;20033;-79
2022/10/12 10:21:22;;;;;;;18.33;5.57;;;19.20;75.40;;;;;;5036348;28;20025;-79
2022/10/12 10:23:59;;;;;;;15.80;5.20;;;19.50;79.00;;;;;;5036608;28;20455;-80
2022/10/12 10:26:26;;;;;;;11.48;5.32;;;20.20;74.70;;;;;;5040363;28;20075;-80
2022/10/12 10:29:14;;;;;;;19.75;5.65;;;20.70;72.30;;;;;;5042182;28;20016;-81
2022/10/12 10:31:39;;;;;;;16.17;5.63;;;21.20;71.30;;;;;;5037853;28;20030;-80
2022/10/12 10:34:14;;;;;;;22.10;5.68;;;21.30;69.40;;;;;;5039155;28;20029;-79
2022/10/12 10:36:45;;;;;;;14.45;5.35;;;21.60;67.50;;;;;;5042225;28;20447;-78
2022/10/12 10:39:22;;;;;;;17.35;4.90;;;21.70;68.40;;;;;;5037811;28;20083;-79
2022/10/12 10:41:52;;;;;;;18.67;6.03;;;21.60;65.70;;;;;;5041122;28;20032;-79
2022/10/12 10:44:29;;;;;;;20.98;5.30;;;21.40;66.30;;;;;;5047406;28;20025;-82
2022/10/12 10:46:59;;;;;;;16.23;5.60;;;20.90;65.40;;;;;;5041928;28;20028;-78
2022/10/12 10:49:40;;;;;;;12.15;5.47;;;20.80;67.00;;;;;;5034720;28;20091;-80
2022/10/12 10:52:18;;;;;;;15.35;5.93;;;20.70;66.80;;;;;;5037995;28;20025;-80
2022/10/12 10:54:44;;;;;;;15.05;6.03;;;20.50;68.60;;;;;;5040490;28;20031;-81
2022/10/12 10:57:19;;;;;;;22.08;5.70;;;20.70;67.70;;;;;;5042053;28;20017;-82
2022/10/12 10:59:50;;;;;;;13.13;4.85;;;20.80;67.20;;;;;;5040191;28;20476;-81
2022/10/12 11:02:55;;;;;;;18.45;5.70;;;20.60;67.50;;;;;;5043495;28;20020;-79
2022/10/12 11:05:28;;;;;;;16.45;6.07;;;20.50;66.80;;;;;;5042116;28;20045;-78
2022/10/12 11:07:57;;;;;;;15.27;5.05;;;20.40;67.40;;;;;;5040625;28;20020;-79
2022/10/12 11:10:29;;;;;;;19.40;5.75;;;20.40;66.70;;;;;;5044445;28;20036;-82
2022/10/12 11:13:18;;;;;;;20.08;5.80;;;20.50;66.90;;;;;;5047354;28;20033;-80
2022/10/12 11:16:01;;;;;;;12.57;5.47;;;20.90;65.80;;;;;;5038022;28;20052;-83
2022/10/12 11:18:38;;;;;;;15.00;5.00;;;20.70;66.80;;;;;;5043884;28;20024;-80
2022/10/12 11:21:12;;;;;;;18.40;6.95;;;21.00;66.10;;;;;;5043085;28;20025;-78
2022/10/12 11:24:13;;;;;;;16.02;6.13;;;20.90;66.90;;;;;;5052835;28;20025;-81
2022/10/12 11:26:52;;;;;;;18.15;5.55;;;20.90;67.60;;;;;;5054999;28;20064;-86
2022/10/12 11:29:18;;;;;;;14.40;5.20;;;20.40;66.10;;;;;;5042753;28;20025;-78
2022/10/12 11:32:49;;;;;;;21.05;5.43;;;20.30;67.40;;;;;;5042447;28;20021;-83
2022/10/12 11:35:26;;;;;;;13.88;4.72;;;20.00;68.00;;;;;;5050727;28;20031;-83
2022/10/12 11:38:04;;;;;;;18.92;4.93;;;19.40;69.40;;;;;;5045654;28;20029;-83
2022/10/12 11:40:32;;;;;;;18.35;5.07;;;19.40;68.70;;;;;;5047370;28;20029;-81
2022/10/12 11:43:06;;;;;;;16.58;5.10;;;19.50;68.90;;;;;;5047947;28;20095;-81
2022/10/12 11:45:40;;;;;;;18.83;4.68;;;19.50;69.50;;;;;;5049800;28;20032;-82
2022/10/12 11:48:23;;;;;;;14.55;5.38;;;19.50;71.00;;;;;;5047039;28;20069;-81
2022/10/12 11:50:49;;;;;;;22.38;5.65;;;19.70;70.50;;;;;;5043534;28;20021;-82
2022/10/12 11:53:48;;;;;;;12.85;5.38;;;19.70;70.10;;;;;;5046641;28;20033;-84
2022/10/12 11:56:46;;;;;;;17.67;4.97;;;19.60;71.60;;;;;;5048250;28;20025;-81
2022/10/12 11:59:32;;;;;;;15.15;4.03;;;20.00;70.30;;;;;;5046608;28;20461;-80
2022/10/12 12:02:21;;;;;;;13.77;4.05;;;20.30;69.20;;;;;;5046694;28;20055;-80
2022/10/12 12:04:48;;;;;;;18.45;4.65;;;20.60;66.70;;;;;;5047007;28;20026;-81
2022/10/12 12:07:58;;;;;;;10.88;4.43;;;20.80;64.60;;;;;;5040744;28;20029;-79
2022/10/12 12:10:26;;;;;;;14.85;4.93;;;20.50;64.30;;;;;;5057338;28;20024;-81
2022/10/12 12:13:11;;;;;;;17.27;4.97;;;20.30;65.90;;;;;;5039503;28;20029;-78
2022/10/12 12:16:00;;;;;;;14.57;4.85;;;20.30;65.20;;;;;;5042777;28;20033;-80
2022/10/12 12:18:32;;;;;;;17.92;5.47;;;20.70;66.00;;;;;;5044968;28;20107;-83
2022/10/12 12:21:11;;;;;;;16.48;5.60;;;21.20;63.80;;;;;;5047640;28;20581;-83
2022/10/12 12:23:41;;;;;;;12.82;5.45;;;21.20;63.10;;;;;;5043239;28;20099;-81
2022/10/12 12:26:09;;;;;;;21.42;5.53;;;21.10;62.40;;;;;;5050997;28;20025;-84
2022/10/12 12:28:41;;;;;;;15.43;5.55;;;21.00;62.30;;;;;;5049235;28;20442;-81
2022/10/12 12:31:22;;;;;;;17.58;6.00;;;21.10;63.50;;;;;;5047078;28;20040;-82
2022/10/12 12:33:59;;;;;;;21.48;5.78;;;21.10;62.10;;;;;;5044660;28;20029;-83
2022/10/12 12:36:36;;;;;;;9.68;5.38;;;21.30;62.80;;;;;;5044200;28;20017;-83
2022/10/12 12:39:05;;;;;;;14.27;5.95;;;21.20;61.60;;;;;;5046158;28;20028;-84
2022/10/12 12:41:53;;;;;;;15.02;6.00;;;21.20;61.90;;;;;;5044146;28;20068;-82
2022/10/12 12:44:36;;;;;;;13.93;6.38;;;20.90;62.10;;;;;;5041031;28;20108;-77
2022/10/12 12:47:02;;;;;;;13.30;4.97;;;20.50;64.00;;;;;;5040566;28;20021;-87
2022/10/12 12:49:50;;;;;;;14.18;5.43;;;20.20;65.00;;;;;;5042227;28;20103;-82
2022/10/12 12:52:19;;;;;;;15.27;5.45;;;20.80;64.90;;;;;;5043469;28;20033;-83
2022/10/12 12:55:01;;;;;;;13.93;5.95;;;21.70;62.80;;;;;;5039136;28;20025;-84
2022/10/12 12:57:52;;;;;;;11.52;5.40;;;22.30;60.10;;;;;;5039574;28;20053;-81
2022/10/12 13:00:21;;;;;;;18.00;5.43;;;22.20;60.40;;;;;;5034087;28;20072;-82
2022/10/12 13:03:24;;;;;;;17.15;5.32;;;22.30;60.10;;;;;;5039739;28;20053;-82
2022/10/12 13:06:39;;;;;;;14.38;4.10;;;22.40;59.80;;;;;;5038508;28;20021;-81
2022/10/12 13:09:42;;;;;;;17.92;4.45;;;21.70;58.80;;;;;;5029061;28;20044;-81